Time;durP1;ratioP1;P1;durP2;ratioP2;P2;SDS_P1;SDS_P2;PMS_P1;PMS_P2;Temp;Humidity;BMP_temperature;BMP_pressure;BME280_temperature;BME280_humidity;BME280_pressure;Samples;Min_cycle;Max_cycle;Signal;HPM_P1;HPM_P2
2022/07/20 00:00:50;;;;;;;7.45;3.42;;;;;21.60;96626.00;;;;8249373;28;20234;-74
2022/07/20 00:04:54;;;;;;;6.03;3.30;;;;;21.50;96625.00;;;;8249755;28;20656;-73
2022/07/20 00:13:18;;;;;;;7.90;3.67;;;;;21.40;96631.00;;;;8270640;28;20235;-72
2022/07/20 00:17:23;;;;;;;6.30;3.75;;;;;21.10;96630.00;;;;8245358;28;20229;-72
2022/07/20 00:21:26;;;;;;;6.00;3.90;;;;;20.90;96627.00;;;;8241055;28;20711;-71
2022/07/20 00:25:30;;;;;;;7.13;3.38;;;;;20.80;96625.00;;;;8254172;28;20758;-74
2022/07/20 00:29:33;;;;;;;6.57;3.33;;;;;20.60;96614.00;;;;8247378;28;20221;-71
2022/07/20 00:33:37;;;;;;;5.40;3.72;;;;;20.40;96606.00;;;;8250124;28;20236;-73
2022/07/20 00:37:41;;;;;;;7.90;3.50;;;;;20.30;96601.00;;;;8250905;28;20229;-73
2022/07/20 00:41:44;;;;;;;6.47;3.67;;;;;20.40;96601.00;;;;8254954;28;20984;-71
2022/07/20 00:45:48;;;;;;;7.25;3.95;;;;;20.50;96603.00;;;;8262441;28;20423;-72
2022/07/20 00:49:52;;;;;;;10.25;3.65;;;;;20.80;96597.00;;;;8256927;28;20246;-73
2022/07/20 00:53:56;;;;;;;4.65;3.50;;;;;20.90;96594.00;;;;8255846;28;20227;-73
2022/07/20 00:57:59;;;;;;;4.50;3.20;;;;;21.00;96585.00;;;;8260652;28;20238;-73
2022/07/20 01:02:02;;;;;;;7.65;4.00;;;;;21.00;96586.00;;;;8254826;28;20314;-72
2022/07/20 01:06:08;;;;;;;6.65;3.60;;;;;21.00;96591.00;;;;8249247;28;20226;-73
2022/07/20 01:10:11;;;;;;;7.10;3.92;;;;;21.10;96583.00;;;;8244962;28;20841;-73
2022/07/20 01:14:15;;;;;;;3.85;3.40;;;;;21.10;96584.00;;;;8248507;28;20318;-75
2022/07/20 01:18:18;;;;;;;5.22;4.07;;;;;21.00;96584.00;;;;8253773;28;20917;-72
2022/07/20 01:22:23;;;;;;;5.03;3.85;;;;;20.90;96586.00;;;;8249026;28;20218;-73
2022/07/20 01:26:26;;;;;;;4.60;3.47;;;;;20.60;96586.00;;;;8253931;28;20679;-73
2022/07/20 01:35:51;;;;;;;5.80;3.72;;;;;19.80;96590.00;;;;8193223;28;20388;-71
2022/07/20 01:39:56;;;;;;;10.82;4.40;;;;;19.60;96582.00;;;;8201199;28;20321;-72
2022/07/20 01:44:00;;;;;;;6.22;4.60;;;;;19.30;96578.00;;;;8196580;28;20711;-74
2022/07/20 01:48:03;;;;;;;4.88;3.83;;;;;19.00;96576.00;;;;8196369;28;20662;-73
2022/07/20 01:52:06;;;;;;;7.72;4.63;;;;;18.80;96574.00;;;;8196649;28;20345;-73
2022/07/20 01:56:11;;;;;;;6.10;3.78;;;;;18.70;96565.00;;;;8198843;28;20319;-71
2022/07/20 02:00:15;;;;;;;5.85;4.10;;;;;18.70;96569.00;;;;8198975;28;20231;-73
2022/07/20 02:04:23;;;;;;;8.05;4.30;;;;;18.60;96565.00;;;;8196510;28;20273;-72
2022/07/20 02:13:50;;;;;;;6.63;3.85;;;;;18.30;96562.00;;;;8198895;28;20282;-70
2022/07/20 02:23:15;;;;;;;11.27;4.50;;;;;18.10;96555.00;;;;8202063;28;20271;-72
2022/07/20 02:27:22;;;;;;;6.18;3.90;;;;;18.00;96549.00;;;;8194573;28;20231;-75
2022/07/20 02:31:27;;;;;;;5.20;4.28;;;;;18.00;96547.00;;;;8195952;28;21074;-74
2022/07/20 02:35:35;;;;;;;6.22;4.03;;;;;17.90;96552.00;;;;8197613;28;20227;-74
2022/07/20 02:39:38;;;;;;;5.47;3.97;;;;;17.90;96554.00;;;;8197923;28;20230;-71
2022/07/20 02:43:41;;;;;;;10.55;4.20;;;;;18.10;96543.00;;;;8196550;28;20227;-74
2022/07/20 02:47:48;;;;;;;7.22;3.78;;;;;18.30;96545.00;;;;8195804;28;20246;-70
2022/07/20 02:51:51;;;;;;;4.30;3.90;;;;;18.00;96547.00;;;;8208346;28;20211;-71
2022/07/20 02:55:54;;;;;;;6.13;4.75;;;;;17.60;96542.00;;;;8205700;28;20223;-73
2022/07/20 02:59:57;;;;;;;4.65;3.95;;;;;17.40;96547.00;;;;8198082;28;20234;-71
2022/07/20 03:04:02;;;;;;;7.75;4.82;;;;;17.30;96551.00;;;;8250325;23;20226;-71
2022/07/20 03:08:06;;;;;;;9.45;4.32;;;;;17.30;96550.00;;;;8229636;28;20553;-72
2022/07/20 03:12:10;;;;;;;6.90;4.80;;;;;17.20;96549.00;;;;8237327;28;20246;-73
2022/07/20 03:26:53;;;;;;;8.07;4.75;;;;;17.00;96553.00;;;;8225053;28;20660;-70
2022/07/20 03:30:56;;;;;;;9.48;4.30;;;;;17.00;96555.00;;;;8224978;28;20269;-78
2022/07/20 03:35:00;;;;;;;13.88;5.38;;;;;17.00;96551.00;;;;8259798;28;20299;-76
2022/07/20 03:39:03;;;;;;;7.00;4.95;;;;;17.00;96555.00;;;;8268173;28;22075;-76
2022/07/20 03:43:08;;;;;;;9.18;4.60;;;;;16.90;96554.00;;;;8228808;28;20313;-77
2022/07/20 03:47:11;;;;;;;5.82;4.57;;;;;16.90;96546.00;;;;8220523;28;20290;-76
2022/07/20 03:51:15;;;;;;;15.57;4.75;;;;;17.00;96551.00;;;;8231478;28;20240;-76
2022/07/20 03:55:18;;;;;;;5.53;4.22;;;;;17.10;96558.00;;;;8230166;28;20226;-74
2022/07/20 03:59:23;;;;;;;8.63;4.65;;;;;17.10;96551.00;;;;8232417;28;20548;-75
2022/07/20 04:03:26;;;;;;;6.97;4.63;;;;;17.10;96552.00;;;;8265604;28;20307;-74
2022/07/20 04:07:29;;;;;;;5.40;4.75;;;;;17.20;96547.00;;;;8300800;28;20228;-75
2022/07/20 04:11:33;;;;;;;11.40;4.68;;;;;17.30;96550.00;;;;8301243;28;20236;-74
2022/07/20 04:15:37;;;;;;;9.73;4.93;;;;;17.40;96548.00;;;;8302366;28;20225;-75
2022/07/20 04:19:45;;;;;;;7.40;4.90;;;;;17.50;96554.00;;;;8299596;28;20626;-77
2022/07/20 04:23:48;;;;;;;6.53;4.78;;;;;17.60;96561.00;;;;8291097;28;20262;-73
2022/07/20 04:27:51;;;;;;;12.00;4.30;;;;;17.80;96557.00;;;;8301507;28;20264;-77
2022/07/20 04:31:57;;;;;;;5.85;4.80;;;;;18.10;96547.00;;;;8294284;28;20232;-74
2022/07/20 04:36:00;;;;;;;10.30;4.90;;;;;18.30;96550.00;;;;8295669;28;20221;-74
2022/07/20 04:40:04;;;;;;;6.63;4.57;;;;;18.50;96560.00;;;;8300986;28;20228;-75
2022/07/20 04:44:08;;;;;;;5.70;4.53;;;;;18.70;96560.00;;;;8297907;28;20338;-76
2022/07/20 04:48:12;;;;;;;7.00;4.72;;;;;18.80;96560.00;;;;8281519;28;20225;-74
2022/07/20 04:52:16;;;;;;;7.28;4.72;;;;;19.20;96558.00;;;;8300088;28;20235;-74
2022/07/20 04:56:19;;;;;;;7.28;4.68;;;;;19.50;96568.00;;;;8308166;28;20720;-75
2022/07/20 05:00:22;;;;;;;7.28;4.80;;;;;19.80;96566.00;;;;8310520;28;20239;-72
2022/07/20 05:04:28;;;;;;;7.88;4.38;;;;;20.20;96565.00;;;;8340124;28;20625;-72
2022/07/20 05:08:31;;;;;;;9.43;4.90;;;;;20.60;96561.00;;;;8347514;28;20220;-74
2022/07/20 05:12:34;;;;;;;5.97;4.78;;;;;20.80;96567.00;;;;8344099;28;20399;-76
2022/07/20 05:16:38;;;;;;;8.45;4.90;;;;;21.20;96575.00;;;;8337223;28;20252;-71
2022/07/20 05:20:43;;;;;;;9.05;5.00;;;;;21.60;96570.00;;;;8347345;28;20227;-72
2022/07/20 05:24:46;;;;;;;6.43;4.57;;;;;22.10;96576.00;;;;8349122;28;20307;-72
2022/07/20 05:28:49;;;;;;;10.68;4.35;;;;;22.60;96576.00;;;;8348426;28;20233;-72
2022/07/20 05:32:53;;;;;;;5.78;3.83;;;;;23.10;96575.00;;;;8349975;28;20695;-72
2022/07/20 05:36:58;;;;;;;8.30;4.15;;;;;23.70;96571.00;;;;8360877;28;20227;-72
2022/07/20 05:41:01;;;;;;;8.35;4.30;;;;;23.90;96570.00;;;;8353916;28;20228;-72
2022/07/20 05:45:04;;;;;;;8.70;4.97;;;;;24.00;96580.00;;;;8344592;28;20823;-70
2022/07/20 05:49:08;;;;;;;5.15;4.25;;;;;24.20;96581.00;;;;8351627;28;20579;-71
2022/07/20 05:53:13;;;;;;;7.53;4.35;;;;;24.40;96578.00;;;;8352523;28;20260;-71
2022/07/20 05:57:16;;;;;;;13.95;4.18;;;;;24.70;96584.00;;;;8352386;28;20221;-75
2022/07/20 06:01:20;;;;;;;7.68;3.60;;;;;25.00;96585.00;;;;8354331;28;20240;-75
2022/07/20 06:05:23;;;;;;;5.00;3.75;;;;;25.50;96586.00;;;;8334208;28;20221;-78
2022/07/20 06:09:28;;;;;;;10.93;4.18;;;;;26.00;96587.00;;;;8313511;28;20549;-75
2022/07/20 06:13:32;;;;;;;10.30;3.75;;;;;26.60;96598.00;;;;8328515;28;20224;-77
2022/07/20 06:17:36;;;;;;;8.25;3.70;;;;;27.40;96596.00;;;;8311961;28;20308;-75
2022/07/20 06:21:39;;;;;;;7.60;3.45;;;;;27.80;96593.00;;;;8332057;28;20375;-74
2022/07/20 06:25:44;;;;;;;6.55;4.00;;;;;28.30;96611.00;;;;8325356;28;20232;-74
2022/07/20 06:29:47;;;;;;;6.05;3.72;;;;;28.70;96610.00;;;;8321162;28;20823;-74
2022/07/20 06:33:50;;;;;;;6.80;3.90;;;;;29.10;96607.00;;;;8327071;28;20236;-73
2022/07/20 06:37:54;;;;;;;4.68;3.55;;;;;29.80;96600.00;;;;8317149;28;20229;-73
2022/07/20 06:41:59;;;;;;;4.35;3.30;;;;;30.50;96595.00;;;;8318005;28;20259;-73
2022/07/20 06:46:02;;;;;;;4.28;3.25;;;;;31.00;96607.00;;;;8316642;28;20316;-73
2022/07/20 06:50:06;;;;;;;4.95;3.50;;;;;31.80;96603.00;;;;8328239;28;20228;-74
2022/07/20 06:54:09;;;;;;;4.20;3.10;;;;;32.20;96610.00;;;;8316979;28;20221;-74
2022/07/20 06:58:18;;;;;;;5.75;2.95;;;;;32.40;96604.00;;;;8326935;28;20577;-74
2022/07/20 07:02:21;;;;;;;5.35;3.30;;;;;32.70;96603.00;;;;8312110;28;20323;-74
2022/07/20 07:06:27;;;;;;;3.55;3.00;;;;;32.80;96601.00;;;;8317483;28;20233;-75
2022/07/20 07:10:30;;;;;;;8.25;3.50;;;;;33.10;96598.00;;;;8328005;28;20251;-74
2022/07/20 07:14:35;;;;;;;5.43;2.92;;;;;33.40;96595.00;;;;8322291;28;20312;-74
2022/07/20 07:18:38;;;;;;;10.65;3.40;;;;;33.40;96600.00;;;;8327095;28;20221;-74
2022/07/20 07:22:41;;;;;;;5.75;3.45;;;;;33.50;96607.00;;;;8318362;28;20327;-74
2022/07/20 07:26:44;;;;;;;4.18;2.85;;;;;33.50;96607.00;;;;8325893;28;20228;-73
2022/07/20 07:30:50;;;;;;;3.30;3.03;;;;;33.30;96604.00;;;;8307079;28;20229;-76
2022/07/20 07:34:54;;;;;;;8.45;3.47;;;;;33.40;96610.00;;;;8307521;28;20221;-76
2022/07/20 07:38:57;;;;;;;8.23;2.78;;;;;33.30;96612.00;;;;8308767;28;22371;-78
2022/07/20 07:43:00;;;;;;;4.40;2.72;;;;;33.30;96610.00;;;;8321999;28;20230;-72
2022/07/20 07:47:05;;;;;;;3.72;3.10;;;;;33.60;96604.00;;;;8302845;28;20228;-72
2022/07/20 07:51:08;;;;;;;6.78;2.95;;;;;34.30;96602.00;;;;8317434;28;20233;-72
2022/07/20 07:55:12;;;;;;;5.35;3.35;;;;;34.80;96603.00;;;;8326995;28;20316;-71
2022/07/20 07:59:15;;;;;;;8.90;3.45;;;;;35.20;96603.00;;;;8317750;28;20227;-71
2022/07/20 08:03:37;;;;;;;5.45;3.13;;;;;35.70;96595.00;;;;8334224;28;20228;-72
2022/07/20 08:07:41;;;;;;;13.10;3.70;;;;;36.00;96600.00;;;;8340235;28;20236;-83
2022/07/20 08:11:44;;;;;;;6.03;3.08;;;;;36.20;96593.00;;;;8341831;28;20250;-77
2022/07/20 08:15:47;;;;;;;10.35;3.08;;;;;36.30;96592.00;;;;8340418;28;20266;-75
2022/07/20 08:19:55;;;;;;;3.92;2.97;;;;;36.60;96590.00;;;;8346618;28;20559;-75
2022/07/20 08:23:59;;;;;;;13.90;3.45;;;;;36.70;96589.00;;;;8347657;28;20235;-75
2022/07/20 08:28:10;;;;;;;19.40;3.55;;;;;37.10;96589.00;;;;8345106;28;20234;-75
2022/07/20 08:32:13;;;;;;;7.78;3.22;;;;;37.40;96592.00;;;;8345734;28;20312;-75
2022/07/20 08:36:18;;;;;;;6.40;3.42;;;;;37.70;96586.00;;;;8342148;28;20315;-75
2022/07/20 08:40:22;;;;;;;5.82;3.17;;;;;37.70;96586.00;;;;8343135;28;20327;-74
2022/07/20 08:44:25;;;;;;;7.82;3.10;;;;;37.90;96587.00;;;;8356004;28;20227;-75
2022/07/20 08:48:28;;;;;;;9.63;3.10;;;;;38.20;96590.00;;;;8346182;28;20320;-75
2022/07/20 08:52:33;;;;;;;6.57;3.58;;;;;38.70;96583.00;;;;8345845;28;20225;-75
2022/07/20 08:56:36;;;;;;;3.47;3.15;;;;;38.70;96586.00;;;;8341915;28;20231;-74
2022/07/20 09:00:40;;;;;;;5.00;3.20;;;;;38.80;96594.00;;;;8350645;28;20256;-74
2022/07/20 09:04:55;;;;;;;6.40;2.90;;;;;39.00;96599.00;;;;8352655;28;20741;-72
2022/07/20 09:09:04;;;;;;;6.70;3.53;;;;;39.20;96599.00;;;;8349891;28;20231;-74
2022/07/20 09:13:12;;;;;;;4.95;3.03;;;;;39.40;96596.00;;;;8358537;28;20239;-74
2022/07/20 09:17:21;;;;;;;4.93;3.05;;;;;39.50;96602.00;;;;8356284;28;20241;-74
2022/07/20 09:21:30;;;;;;;4.93;3.28;;;;;39.60;96594.00;;;;8355278;28;20239;-73
2022/07/20 09:25:35;;;;;;;4.10;3.17;;;;;39.60;96597.00;;;;8345195;28;20232;-74
2022/07/20 09:29:39;;;;;;;5.57;3.30;;;;;40.00;96582.00;;;;8358684;28;20702;-74
2022/07/20 09:33:49;;;;;;;5.43;3.20;;;;;40.50;96591.00;;;;8348046;28;20220;-75
2022/07/20 09:37:56;;;;;;;8.20;3.40;;;;;40.80;96588.00;;;;8350594;28;20228;-74
2022/07/20 09:42:00;;;;;;;8.98;3.70;;;;;41.00;96590.00;;;;8346434;28;20221;-75
2022/07/20 09:46:13;;;;;;;8.57;3.10;;;;;40.70;96595.00;;;;8351935;28;20696;-74
2022/07/20 09:50:29;;;;;;;4.68;3.10;;;;;41.00;96584.00;;;;8349484;28;20282;-74
2022/07/20 09:54:32;;;;;;;7.80;2.85;;;;;41.60;96584.00;;;;8358310;28;20687;-74
2022/07/20 09:58:38;;;;;;;4.82;3.20;;;;;42.10;96577.00;;;;8349266;28;20328;-74
2022/07/20 10:02:42;;;;;;;5.55;3.20;;;;;41.80;96580.00;;;;8351331;28;20236;-74
2022/07/20 10:06:48;;;;;;;3.97;3.40;;;;;41.30;96577.00;;;;8348640;28;20629;-74
2022/07/20 10:10:52;;;;;;;6.88;3.00;;;;;41.80;96582.00;;;;8345168;28;20594;-73
2022/07/20 10:14:59;;;;;;;6.50;3.40;;;;;41.90;96585.00;;;;8336859;28;20224;-74
2022/07/20 10:19:04;;;;;;;5.65;3.20;;;;;41.90;96582.00;;;;8345309;28;20419;-74
2022/07/20 10:23:28;;;;;;;9.30;2.67;;;;;42.10;96585.00;;;;8346369;28;20232;-74
2022/07/20 10:27:35;;;;;;;6.65;3.28;;;;;42.20;96577.00;;;;8348893;28;20307;-75
2022/07/20 10:31:53;;;;;;;6.00;2.78;;;;;42.40;96572.00;;;;8340272;28;20323;-75
2022/07/20 10:36:41;;;;;;;6.65;3.30;;;;;42.80;96568.00;;;;8353354;28;20588;-75
2022/07/20 10:40:22;;;;;;;13.00;3.22;;;;;42.50;96575.00;;;;8341652;28;20247;-75
2022/07/20 10:44:30;;;;;;;4.07;3.17;;;;;42.60;96567.00;;;;8345847;28;20303;-75
2022/07/20 10:48:47;;;;;;;3.45;3.05;;;;;43.00;96562.00;;;;8335733;28;20220;-75
2022/07/20 10:52:53;;;;;;;5.55;3.35;;;;;43.20;96552.00;;;;8349206;28;20236;-74
2022/07/20 10:56:56;;;;;;;7.22;3.15;;;;;43.30;96550.00;;;;8359567;28;20232;-74
2022/07/20 11:01:02;;;;;;;4.30;2.90;;;;;43.50;96550.00;;;;8324427;28;20753;-74
2022/07/20 11:05:20;;;;;;;3.22;2.83;;;;;43.70;96551.00;;;;8325516;28;20647;-74
2022/07/20 11:09:32;;;;;;;14.45;4.00;;;;;43.70;96554.00;;;;8334627;28;20274;-76
2022/07/20 11:13:35;;;;;;;5.20;3.13;;;;;43.20;96552.00;;;;8348083;28;20656;-74
2022/07/20 11:17:40;;;;;;;5.88;3.08;;;;;43.00;96551.00;;;;8345061;28;20224;-73
2022/07/20 11:21:45;;;;;;;9.25;4.07;;;;;43.40;96546.00;;;;8345785;28;20229;-70
2022/07/20 11:25:51;;;;;;;4.90;3.35;;;;;43.60;96550.00;;;;8346233;28;20737;-69
2022/07/20 11:29:55;;;;;;;6.30;3.13;;;;;43.90;96551.00;;;;8342445;28;20217;-69
2022/07/20 11:34:01;;;;;;;5.95;3.20;;;;;44.60;96546.00;;;;8343708;28;20250;-71
2022/07/20 11:38:05;;;;;;;4.90;3.30;;;;;44.90;96545.00;;;;8339617;28;20237;-70
2022/07/20 11:42:12;;;;;;;3.97;3.63;;;;;45.30;96535.00;;;;8342617;28;20306;-71
2022/07/20 11:46:18;;;;;;;4.68;3.25;;;;;45.30;96528.00;;;;8351816;28;20223;-72
2022/07/20 11:50:21;;;;;;;12.65;3.35;;;;;45.10;96535.00;;;;8343660;28;20236;-72
2022/07/20 11:54:28;;;;;;;7.38;3.13;;;;;45.10;96521.00;;;;8344746;28;20241;-70
2022/07/20 11:58:34;;;;;;;8.60;3.85;;;;;45.10;96519.00;;;;8348510;28;20226;-70
2022/07/20 12:02:37;;;;;;;5.78;3.25;;;;;44.80;96519.00;;;;8346197;28;20945;-70
2022/07/20 12:06:41;;;;;;;6.60;3.33;;;;;45.00;96526.00;;;;8344288;28;20228;-70
2022/07/20 12:10:47;;;;;;;3.28;3.00;;;;;45.20;96520.00;;;;8344755;28;20251;-70
2022/07/20 12:14:50;;;;;;;4.38;3.13;;;;;45.40;96516.00;;;;8343801;28;20224;-68
2022/07/20 12:19:04;;;;;;;10.85;3.50;;;;;45.60;96517.00;;;;8340708;28;20228;-67
2022/07/20 12:23:08;;;;;;;4.72;3.55;;;;;45.80;96515.00;;;;8339114;28;20893;-68
2022/07/20 12:27:15;;;;;;;6.43;3.50;;;;;46.00;96505.00;;;;8340606;28;20228;-68
2022/07/20 12:31:19;;;;;;;5.78;3.30;;;;;46.30;96500.00;;;;8340485;28;20703;-67
2022/07/20 12:36:03;;;;;;;5.40;3.53;;;;;46.00;96500.00;;;;8363691;28;20235;-67
2022/07/20 12:40:32;;;;;;;5.78;3.30;;;;;45.30;96497.00;;;;8361984;28;20216;-68
2022/07/20 12:45:08;;;;;;;6.63;3.63;;;;;44.60;96497.00;;;;8366282;28;20306;-68
2022/07/20 12:49:19;;;;;;;3.70;3.20;;;;;43.70;96491.00;;;;8366904;28;20216;-68
2022/07/20 12:53:48;;;;;;;8.18;3.58;;;;;42.50;96493.00;;;;8365566;28;20315;-68
2022/07/20 12:57:51;;;;;;;4.00;3.45;;;;;42.20;96491.00;;;;8366559;28;20258;-68
2022/07/20 13:02:27;;;;;;;5.28;3.28;;;;;42.00;96489.00;;;;8365882;28;20260;-68
2022/07/20 13:07:01;;;;;;;6.82;3.70;;;;;41.80;96476.00;;;;8366533;28;20725;-68
2022/07/20 13:11:40;;;;;;;7.15;3.30;;;;;41.50;96470.00;;;;8365572;28;20243;-69
2022/07/20 13:15:43;;;;;;;3.88;3.15;;;;;41.30;96463.00;;;;8366161;28;20244;-69
2022/07/20 13:19:48;;;;;;;5.93;3.20;;;;;41.40;96466.00;;;;8358770;28;20273;-69
2022/07/20 13:24:25;;;;;;;10.38;3.58;;;;;41.70;96450.00;;;;8366138;28;20295;-68
2022/07/20 13:28:28;;;;;;;6.20;3.40;;;;;42.50;96442.00;;;;8365297;28;20232;-69
2022/07/20 13:33:05;;;;;;;5.32;3.85;;;;;43.20;96440.00;;;;8365559;28;20225;-68
2022/07/20 13:37:43;;;;;;;3.97;3.58;;;;;43.90;96440.00;;;;8364970;28;20219;-69
2022/07/20 13:41:47;;;;;;;4.40;3.50;;;;;44.50;96443.00;;;;8365771;28;20303;-69
2022/07/20 13:45:50;;;;;;;4.40;3.88;;;;;44.50;96432.00;;;;8351387;28;20240;-70
2022/07/20 13:50:28;;;;;;;4.45;3.55;;;;;44.80;96429.00;;;;8362190;28;20227;-70
2022/07/20 13:55:07;;;;;;;3.60;3.30;;;;;45.40;96423.00;;;;8355982;28;20267;-69
2022/07/20 13:59:38;;;;;;;7.57;3.65;;;;;45.70;96420.00;;;;8359722;28;20236;-71
2022/07/20 14:04:17;;;;;;;4.13;3.47;;;;;45.90;96423.00;;;;8358619;28;20669;-69
2022/07/20 14:08:51;;;;;;;3.83;3.17;;;;;46.10;96423.00;;;;8362650;28;20566;-69
2022/07/20 14:13:25;;;;;;;11.20;3.40;;;;;46.20;96425.00;;;;8357286;28;20242;-71
2022/07/20 14:18:04;;;;;;;9.00;3.78;;;;;45.80;96418.00;;;;8352526;28;20537;-68
2022/07/20 14:22:39;;;;;;;7.90;3.60;;;;;45.80;96417.00;;;;8363864;28;20239;-66
2022/07/20 14:27:13;;;;;;;5.78;3.83;;;;;46.00;96416.00;;;;8362961;28;20638;-68
2022/07/20 14:31:50;;;;;;;11.45;3.38;;;;;45.90;96406.00;;;;8363445;28;20684;-68
2022/07/20 14:36:28;;;;;;;11.07;3.85;;;;;45.50;96415.00;;;;8363342;28;20220;-68
2022/07/20 14:41:02;;;;;;;6.15;3.53;;;;;45.00;96420.00;;;;8363891;28;20302;-71
2022/07/20 14:45:39;;;;;;;4.22;3.30;;;;;44.80;96404.00;;;;8362218;28;20212;-70
2022/07/20 14:50:16;;;;;;;18.38;3.67;;;;;44.30;96400.00;;;;8362744;28;20236;-70
2022/07/20 14:54:24;;;;;;;6.22;3.50;;;;;44.70;96399.00;;;;8363219;28;20247;-74
2022/07/20 14:58:58;;;;;;;5.13;3.72;;;;;44.90;96405.00;;;;8362372;28;20239;-67
2022/07/20 15:03:35;;;;;;;7.25;3.63;;;;;45.10;96402.00;;;;8358334;28;20220;-66
2022/07/20 15:12:55;;;;;;;5.32;3.30;;;;;45.40;96386.00;;;;8350805;28;20703;-67
2022/07/20 15:17:29;;;;;;;4.43;3.72;;;;;45.50;96382.00;;;;8362077;28;20744;-66
2022/07/20 15:22:06;;;;;;;5.15;4.30;;;;;45.50;96382.00;;;;8362240;28;20326;-66
2022/07/20 15:26:43;;;;;;;5.80;3.65;;;;;45.60;96385.00;;;;8360900;28;20212;-66
2022/07/20 15:31:21;;;;;;;7.13;3.47;;;;;45.80;96370.00;;;;8361618;28;20240;-66
2022/07/20 15:35:55;;;;;;;4.07;3.35;;;;;45.20;96366.00;;;;8358298;28;20334;-66
2022/07/20 15:40:24;;;;;;;4.85;3.25;;;;;45.00;96368.00;;;;8361029;28;20299;-67
2022/07/20 15:45:01;;;;;;;10.35;3.72;;;;;45.00;96360.00;;;;8360944;28;20219;-67
2022/07/20 15:49:38;;;;;;;6.80;3.55;;;;;44.90;96356.00;;;;8356026;28;20642;-68
2022/07/20 15:54:13;;;;;;;6.15;3.70;;;;;45.00;96349.00;;;;8342896;28;20310;-71
2022/07/20 15:58:47;;;;;;;4.43;3.58;;;;;45.00;96346.00;;;;8341456;28;20295;-66
2022/07/20 16:03:22;;;;;;;8.63;3.88;;;;;44.90;96342.00;;;;8342983;28;20232;-64
2022/07/20 16:12:42;;;;;;;4.70;3.80;;;;;44.80;96332.00;;;;8341224;28;20254;-67
2022/07/20 16:17:16;;;;;;;5.63;3.70;;;;;44.60;96332.00;;;;8337779;28;20286;-65
2022/07/20 16:21:53;;;;;;;3.67;3.38;;;;;44.50;96327.00;;;;8355260;28;20633;-67
2022/07/20 16:25:56;;;;;;;5.93;3.80;;;;;44.50;96334.00;;;;8358785;28;20327;-67
2022/07/20 16:30:35;;;;;;;9.52;3.85;;;;;44.40;96336.00;;;;8360337;28;20220;-67
2022/07/20 16:34:56;;;;;;;5.80;3.75;;;;;44.30;96335.00;;;;8359549;28;20659;-67
2022/07/20 16:39:34;;;;;;;4.53;3.58;;;;;44.40;96332.00;;;;8359335;28;20247;-66
2022/07/20 16:43:37;;;;;;;7.90;3.78;;;;;44.30;96347.00;;;;8359389;28;20250;-67
2022/07/20 16:48:15;;;;;;;3.50;3.20;;;;;44.00;96344.00;;;;8360469;28;20318;-67
2022/07/20 16:52:49;;;;;;;7.20;3.58;;;;;43.90;96338.00;;;;8358893;28;20216;-66
2022/07/20 16:57:26;;;;;;;3.58;3.10;;;;;43.70;96340.00;;;;8360023;28;20577;-66
2022/07/20 17:01:29;;;;;;;8.30;4.22;;;;;43.30;96337.00;;;;8359840;28;20717;-66
2022/07/20 17:05:34;;;;;;;4.05;3.42;;;;;43.50;96332.00;;;;8359449;28;20281;-66
2022/07/20 17:10:08;;;;;;;9.02;3.50;;;;;43.50;96328.00;;;;8359869;28;20232;-67
2022/07/20 17:14:12;;;;;;;5.30;3.60;;;;;43.40;96327.00;;;;8360858;28;20588;-66
2022/07/20 17:18:15;;;;;;;6.55;3.60;;;;;43.40;96332.00;;;;8360027;28;20303;-66
2022/07/20 17:22:20;;;;;;;10.75;3.45;;;;;43.40;96330.00;;;;8365337;28;20316;-66
2022/07/20 17:26:57;;;;;;;4.22;3.20;;;;;43.30;96326.00;;;;8362557;28;20307;-66
2022/07/20 17:31:33;;;;;;;12.13;3.80;;;;;43.30;96325.00;;;;8363472;28;20610;-67
2022/07/20 17:36:11;;;;;;;7.60;3.10;;;;;43.20;96333.00;;;;8364548;28;20654;-67
2022/07/20 17:40:49;;;;;;;6.00;3.45;;;;;43.20;96338.00;;;;8364766;28;20216;-67
2022/07/20 17:45:23;;;;;;;7.80;3.28;;;;;42.90;96333.00;;;;8364920;28;20223;-64
2022/07/20 17:50:01;;;;;;;5.97;3.13;;;;;42.30;96335.00;;;;8362354;28;20248;-64
2022/07/20 17:54:12;;;;;;;4.90;3.45;;;;;42.10;96334.00;;;;8362109;28;20259;-64
2022/07/20 17:58:21;;;;;;;6.65;3.28;;;;;41.80;96333.00;;;;8365605;28;20703;-64
2022/07/20 18:02:24;;;;;;;4.85;2.90;;;;;41.20;96330.00;;;;8365186;28;20229;-64
2022/07/20 18:06:58;;;;;;;7.28;3.10;;;;;40.30;96320.00;;;;8363694;28;20232;-64
2022/07/20 18:11:35;;;;;;;4.55;2.83;;;;;39.30;96316.00;;;;8364277;28;20283;-64
2022/07/20 18:16:14;;;;;;;5.18;3.10;;;;;38.40;96310.00;;;;8364075;28;20227;-64
2022/07/20 18:20:48;;;;;;;6.70;3.15;;;;;37.60;96306.00;;;;8365187;28;20213;-64
2022/07/20 18:25:25;;;;;;;6.53;3.15;;;;;37.00;96302.00;;;;8363258;28;20278;-65
2022/07/20 18:29:59;;;;;;;8.48;3.33;;;;;36.50;96305.00;;;;8363420;28;20675;-64
2022/07/20 18:34:36;;;;;;;8.50;3.13;;;;;36.00;96315.00;;;;8362468;28;20299;-64
2022/07/20 18:39:14;;;;;;;6.15;3.30;;;;;35.70;96304.00;;;;8364368;28;20236;-65
2022/07/20 18:43:47;;;;;;;4.72;3.30;;;;;35.30;96295.00;;;;8361366;28;20570;-65
2022/07/20 18:47:51;;;;;;;6.95;3.33;;;;;34.90;96303.00;;;;8363267;28;20319;-64
2022/07/20 18:52:28;;;;;;;5.75;3.20;;;;;34.60;96312.00;;;;8362818;28;20247;-64
2022/07/20 18:57:08;;;;;;;8.02;3.30;;;;;34.20;96307.00;;;;8361432;28;20316;-65
2022/07/20 19:01:37;;;;;;;7.85;3.13;;;;;33.90;96300.00;;;;8362748;28;20217;-64
2022/07/20 19:06:14;;;;;;;6.75;3.30;;;;;33.50;96311.00;;;;8363465;28;20270;-65
2022/07/20 19:15:34;;;;;;;6.25;3.85;;;;;33.00;96327.00;;;;8361699;28;20704;-65
2022/07/20 19:20:09;;;;;;;3.63;2.95;;;;;32.70;96338.00;;;;8363422;28;20235;-64
2022/07/20 19:24:43;;;;;;;6.10;3.60;;;;;32.40;96341.00;;;;8361848;28;20213;-65
2022/07/20 19:29:21;;;;;;;7.30;3.35;;;;;32.00;96346.00;;;;8362499;28;20232;-64
2022/07/20 19:33:59;;;;;;;5.03;3.17;;;;;31.60;96349.00;;;;8361786;28;20627;-64
2022/07/20 19:38:34;;;;;;;7.20;3.28;;;;;31.20;96352.00;;;;8361821;28;20251;-64
2022/07/20 19:43:12;;;;;;;7.43;3.80;;;;;31.10;96360.00;;;;8361348;28;20224;-64
2022/07/20 19:47:49;;;;;;;7.57;3.33;;;;;31.00;96366.00;;;;8361426;28;20307;-64
2022/07/20 19:52:28;;;;;;;6.25;3.67;;;;;30.80;96378.00;;;;8361031;28;20243;-64
2022/07/20 19:56:33;;;;;;;9.77;3.55;;;;;30.60;96386.00;;;;8362078;28;20225;-63
2022/07/20 20:01:11;;;;;;;5.72;3.25;;;;;30.20;96397.00;;;;8360963;28;20220;-64
2022/07/20 20:05:45;;;;;;;4.35;3.60;;;;;29.90;96405.00;;;;8360188;28;20566;-64
2022/07/20 20:15:08;;;;;;;8.60;3.40;;;;;29.10;96394.00;;;;8359864;28;20722;-65
2022/07/20 20:19:40;;;;;;;6.45;3.47;;;;;28.60;96382.00;;;;8361057;28;20311;-64
2022/07/20 20:24:17;;;;;;;14.63;3.72;;;;;28.20;96382.00;;;;8360264;28;20215;-63
2022/07/20 20:28:54;;;;;;;5.20;3.50;;;;;27.90;96389.00;;;;8360314;28;20299;-63
2022/07/20 20:33:30;;;;;;;6.45;3.78;;;;;27.70;96411.00;;;;8360152;28;20216;-63
2022/07/20 20:38:05;;;;;;;7.53;3.20;;;;;27.60;96436.00;;;;8345981;28;20235;-63
2022/07/20 20:42:40;;;;;;;9.15;3.80;;;;;27.40;96437.00;;;;8360469;28;20304;-64
2022/07/20 20:47:16;;;;;;;10.13;3.90;;;;;27.30;96427.00;;;;8361101;28;20251;-63
2022/07/20 20:51:55;;;;;;;11.38;4.40;;;;;27.10;96425.00;;;;8359030;28;20299;-63
2022/07/20 20:56:30;;;;;;;7.53;3.45;;;;;27.00;96435.00;;;;8363181;28;20263;-63
2022/07/20 21:00:33;;;;;;;7.40;3.45;;;;;26.80;96530.00;;;;8366992;28;20295;-62
2022/07/20 21:05:10;;;;;;;24.35;9.15;;;;;27.30;96545.00;;;;8366548;28;20303;-64
2022/07/20 21:09:15;;;;;;;25.65;9.10;;;;;27.70;96545.00;;;;8354297;28;20295;-63
2022/07/20 21:13:18;;;;;;;22.98;10.43;;;;;28.00;96560.00;;;;8367541;28;20726;-63
2022/07/20 21:17:52;;;;;;;34.38;11.43;;;;;28.20;96584.00;;;;8364418;28;20308;-62
2022/07/20 21:21:55;;;;;;;45.45;12.07;;;;;28.20;96568.00;;;;8366801;28;20319;-63
2022/07/20 21:26:34;;;;;;;33.05;13.07;;;;;28.10;96579.00;;;;8366488;28;20232;-63
2022/07/20 21:30:37;;;;;;;28.77;12.30;;;;;28.00;96594.00;;;;8365392;28;20292;-64
2022/07/20 21:35:14;;;;;;;24.63;10.02;;;;;27.80;96592.00;;;;8365569;28;20217;-62
2022/07/20 21:39:17;;;;;;;13.18;8.48;;;;;27.70;96605.00;;;;8366584;28;20301;-63
2022/07/20 21:43:55;;;;;;;12.27;7.47;;;;;27.60;96609.00;;;;8365587;28;20239;-63
2022/07/20 21:47:59;;;;;;;15.07;7.10;;;;;27.50;96601.00;;;;8365421;28;20303;-62
2022/07/20 21:52:36;;;;;;;18.38;7.25;;;;;27.50;96611.00;;;;8365696;28;20244;-63
2022/07/20 21:56:39;;;;;;;13.85;7.18;;;;;27.40;96598.00;;;;8365171;28;20220;-62
2022/07/20 22:00:44;;;;;;;9.98;6.50;;;;;27.40;96591.00;;;;8365215;28;20295;-63